Time;durP1;ratioP1;P1;durP2;ratioP2;P2;SDS_P1;SDS_P2;PMS_P1;PMS_P2;Temp;Humidity;BMP_temperature;BMP_pressure;BME280_temperature;BME280_humidity;BME280_pressure;Samples;Min_cycle;Max_cycle;Signal;HPM_P1;HPM_P2
2023/08/14 00:01:25;;;;;;;;;4.33;3.67;;;;;-143.90;72.46;74157.25;4883382;28;104587;-74
2023/08/14 00:03:52;;;;;;;;;4.00;4.00;;;;;-143.90;72.45;74165.53;4885991;28;102132;-74
2023/08/14 00:06:19;;;;;;;;;4.33;4.33;;;;;-143.90;72.27;74159.31;4890473;28;103555;-74
2023/08/14 00:08:45;;;;;;;;;6.00;5.67;;;;;-143.90;71.78;74167.59;4886044;28;103530;-74
2023/08/14 00:11:12;;;;;;;;;3.00;3.00;;;;;-143.90;71.84;74167.59;4886921;28;102121;-74
2023/08/14 00:13:55;;;;;;;;;5.00;5.00;;;;;-143.90;71.45;74169.66;4908353;28;102557;-74
2023/08/14 00:16:24;;;;;;;;;5.00;5.00;;;;;-143.90;72.46;74167.59;4884568;28;108627;-74
2023/08/14 00:18:51;;;;;;;;;4.00;3.33;;;;;-143.90;73.63;74188.25;4887960;28;102671;-76
2023/08/14 00:21:18;;;;;;;;;4.00;3.33;;;;;-143.90;74.64;74192.41;4885850;28;102019;-76
2023/08/14 00:23:46;;;;;;;;;4.33;3.67;;;;;-143.90;73.97;74204.78;4889882;28;102138;-74
2023/08/14 00:26:13;;;;;;;;;5.00;5.00;;;;;-143.90;74.34;74206.88;4887748;28;103383;-75
2023/08/14 00:28:40;;;;;;;;;5.00;5.00;;;;;-143.90;74.08;74208.94;4887097;28;104884;-74
2023/08/14 00:31:07;;;;;;;;;5.33;5.00;;;;;-143.90;74.31;74223.41;4886165;28;101937;-75
2023/08/14 00:33:34;;;;;;;;;5.33;5.33;;;;;-143.90;74.93;74225.47;4881658;28;102022;-74
2023/08/14 00:36:01;;;;;;;;;5.00;5.00;;;;;-143.90;74.63;74221.31;4883803;28;104376;-74
2023/08/14 00:38:27;;;;;;;;;3.00;3.00;;;;;-143.90;74.58;74231.66;4887853;28;102053;-74
2023/08/14 00:40:54;;;;;;;;;3.00;3.00;;;;;-143.90;74.58;74237.88;4881847;28;102375;-74
2023/08/14 00:43:21;;;;;;;;;4.67;4.00;;;;;-143.90;73.72;74246.13;4885629;28;102426;-74
2023/08/14 00:45:52;;;;;;;;;5.33;5.33;;;;;-143.90;73.89;74258.53;4879110;28;104110;-74
2023/08/14 00:48:19;;;;;;;;;5.67;5.67;;;;;-143.90;74.00;74262.66;4805607;28;102645;-74
2023/08/14 00:50:46;;;;;;;;;6.33;6.33;;;;;-143.90;73.76;74291.59;4886108;28;102195;-75
2023/08/14 00:53:15;;;;;;;;;3.67;3.67;;;;;-143.90;75.76;74308.13;4882137;28;103489;-74
2023/08/14 00:55:42;;;;;;;;;9.00;9.00;;;;;-143.90;78.20;74345.34;4886486;28;103934;-75
2023/08/14 00:58:08;;;;;;;;;13.00;11.33;;;;;-143.90;79.36;74366.00;4889538;28;101924;-74
2023/08/14 01:00:36;;;;;;;;;8.00;8.00;;;;;-143.90;79.96;74382.56;4883828;28;104379;-74
2023/08/14 01:03:03;;;;;;;;;8.67;8.67;;;;;-143.90;79.57;74382.56;4903183;28;102071;-74
2023/08/14 01:05:31;;;;;;;;;6.00;6.00;;;;;-143.90;78.80;74372.22;4877876;28;104215;-74
2023/08/14 01:07:58;;;;;;;;;6.33;5.33;;;;;-143.90;78.54;74386.69;4884868;28;102281;-75
2023/08/14 01:10:56;;;;;;;;;5.67;5.67;;;;;-143.90;77.97;74376.34;4886199;28;102529;-74
2023/08/14 01:13:36;;;;;;;;;6.33;5.67;;;;;-143.90;78.30;74380.47;4888303;28;102105;-74
2023/08/14 01:16:08;;;;;;;;;6.33;6.00;;;;;-143.90;78.36;74384.63;4886461;28;104621;-74
2023/08/14 01:18:38;;;;;;;;;4.67;4.67;;;;;-143.90;78.60;74384.63;4884120;28;102312;-74
2023/08/14 01:21:39;;;;;;;;;7.00;6.67;;;;;-143.90;78.72;74388.75;4885230;28;101888;-74
2023/08/14 01:24:38;;;;;;;;;5.33;4.67;;;;;-143.90;78.54;74390.81;4884553;28;102256;-75
2023/08/14 01:27:05;;;;;;;;;8.00;7.00;;;;;-143.90;77.49;74388.75;4898325;28;108789;-74
2023/08/14 01:29:33;;;;;;;;;7.67;7.67;;;;;-143.90;78.25;74390.81;4885015;28;105155;-74
2023/08/14 01:32:00;;;;;;;;;8.00;8.00;;;;;-143.90;78.05;74397.03;4882404;28;102260;-74
2023/08/14 01:34:27;;;;;;;;;20.50;20.25;;;;;-143.90;76.87;74403.22;4888732;28;102232;-74
2023/08/14 01:37:16;;;;;;;;;23.00;22.33;;;;;-143.90;77.95;74413.56;4880483;28;103299;-74
2023/08/14 01:39:59;;;;;;;;;20.33;19.00;;;;;-143.90;79.49;74436.28;4881762;28;107540;-74
2023/08/14 01:42:31;;;;;;;;;18.00;17.33;;;;;-143.90;79.69;74440.44;4881802;28;102165;-74
2023/08/14 01:45:05;;;;;;;;;19.25;18.75;;;;;-143.90;78.41;74428.03;4885705;28;102614;-74
2023/08/14 01:47:34;;;;;;;;;22.50;22.00;;;;;-143.90;77.97;74440.44;4888482;28;103912;-74
2023/08/14 01:50:02;;;;;;;;;25.00;23.00;;;;;-143.90;78.47;74444.56;4889591;28;102180;-74
2023/08/14 01:52:30;;;;;;;;;19.00;19.00;;;;;-143.90;80.15;74456.97;4888111;28;102320;-74
2023/08/14 01:55:00;;;;;;;;;21.33;19.00;;;;;-143.90;80.42;74461.09;4887448;28;102650;-74
2023/08/14 01:57:28;;;;;;;;;16.00;15.67;;;;;-143.90;80.78;74469.38;4886049;28;103103;-75
2023/08/14 01:59:55;;;;;;;;;13.00;12.00;;;;;-143.90;80.07;74461.09;4891340;28;103430;-75
2023/08/14 02:02:21;;;;;;;;;21.50;20.00;;;;;-143.90;79.02;74461.09;4902857;28;101960;-75
2023/08/14 02:04:48;;;;;;;;;24.00;23.50;;;;;-143.90;78.70;74448.69;4902865;28;103080;-75
2023/08/14 02:07:19;;;;;;;;;15.67;15.67;;;;;-143.90;80.68;74450.75;4904394;28;104223;-75
2023/08/14 02:09:46;;;;;;;;;14.00;14.00;;;;;-143.90;81.13;74473.50;4888943;28;102317;-75
2023/08/14 02:12:13;;;;;;;;;15.67;14.67;;;;;-143.90;81.55;74475.56;4883601;28;102386;-75
2023/08/14 02:14:39;;;;;;;;;14.33;14.00;;;;;-143.90;81.20;74463.16;4890063;28;102345;-75
2023/08/14 02:17:06;;;;;;;;;10.00;10.00;;;;;-143.90;81.03;74469.38;4882415;28;104124;-75
2023/08/14 02:19:33;;;;;;;;;9.00;8.00;;;;;-143.90;80.89;74471.44;4883843;28;104415;-75
2023/08/14 02:22:00;;;;;;;;;8.00;7.00;;;;;-143.90;80.39;74465.22;4885571;28;102685;-74
2023/08/14 02:24:26;;;;;;;;;14.00;10.00;;;;;-143.90;79.66;74465.22;4889441;28;102277;-74
2023/08/14 02:26:53;;;;;;;;;8.33;7.00;;;;;-143.90;79.69;74477.63;4902808;28;104095;-75
2023/08/14 02:29:20;;;;;;;;;7.00;7.00;;;;;-143.90;80.84;74475.56;4881746;28;101943;-75
2023/08/14 02:31:50;;;;;;;;;7.00;7.00;;;;;-143.90;81.39;74490.03;4880821;28;103537;-74
2023/08/14 02:34:56;;;;;;;;;8.00;7.00;;;;;-143.90;81.94;74498.31;4879380;28;102201;-74
2023/08/14 02:37:22;;;;;;;;;6.33;5.67;;;;;-143.90;81.31;74485.91;4784969;29;108721;-74
2023/08/14 02:39:49;;;;;;;;;7.00;6.00;;;;;-143.90;80.74;74490.03;4869476;28;102264;-74
2023/08/14 02:42:19;;;;;;;;;5.67;5.67;;;;;-143.90;80.05;74494.16;4884004;28;106362;-74
2023/08/14 02:44:46;;;;;;;;;4.67;4.67;;;;;-143.90;80.28;74510.72;4876207;28;102969;-74
2023/08/14 02:47:13;;;;;;;;;8.00;6.33;;;;;-143.90;80.90;74514.84;4889733;28;104410;-75
2023/08/14 02:49:40;;;;;;;;;3.33;3.00;;;;;-143.90;80.85;74516.91;4886909;28;101932;-74
2023/08/14 02:52:07;;;;;;;;;2.33;2.33;;;;;-143.90;81.07;74510.72;4884215;28;102486;-74
2023/08/14 02:54:34;;;;;;;;;4.33;4.33;;;;;-143.90;80.58;74502.44;4888744;28;102342;-74
2023/08/14 02:57:01;;;;;;;;;10.33;10.33;;;;;-143.90;79.43;74508.63;4884452;28;103660;-75
2023/08/14 02:59:27;;;;;;;;;10.33;10.33;;;;;-143.90;79.87;74510.72;4890578;28;102056;-75
2023/08/14 03:01:54;;;;;;;;;10.33;10.00;;;;;-143.90;80.56;74514.84;4888837;28;102321;-75
2023/08/14 03:04:24;;;;;;;;;12.00;10.00;;;;;-143.90;80.67;74531.38;4891301;28;103832;-75
2023/08/14 03:06:50;;;;;;;;;9.00;9.00;;;;;-143.90;80.56;74533.44;4887853;28;108712;-75
2023/08/14 03:09:18;;;;;;;;;11.00;10.67;;;;;-143.90;81.00;74527.25;4884106;28;102765;-75
2023/08/14 03:11:44;;;;;;;;;5.00;5.00;;;;;-143.90;81.05;74527.25;4883213;28;102595;-75
2023/08/14 03:14:11;;;;;;;;;8.33;7.00;;;;;-143.90;81.11;74525.19;4888083;28;104082;-74
2023/08/14 03:16:38;;;;;;;;;7.33;5.67;;;;;-143.90;80.67;74518.97;4887756;28;102921;-75
2023/08/14 03:19:05;;;;;;;;;6.00;6.00;;;;;-143.90;80.32;74512.78;4886976;28;102356;-75
2023/08/14 03:21:32;;;;;;;;;8.00;7.33;;;;;-143.90;80.54;74518.97;4890233;28;102134;-73
2023/08/14 03:23:59;;;;;;;;;6.00;6.00;;;;;-143.90;79.80;74518.97;4888653;28;102361;-74
2023/08/14 03:26:25;;;;;;;;;5.67;5.67;;;;;-143.90;79.66;74518.97;4902904;28;103220;-75
2023/08/14 03:28:52;;;;;;;;;4.00;4.00;;;;;-143.90;80.04;74514.84;4884435;28;102211;-75
2023/08/14 03:31:19;;;;;;;;;4.00;3.33;;;;;-143.90;80.49;74531.38;4881680;28;103568;-75
2023/08/14 03:33:46;;;;;;;;;5.00;5.00;;;;;-143.90;81.34;74531.38;4901338;28;102422;-75
2023/08/14 03:36:13;;;;;;;;;8.67;7.67;;;;;-143.90;82.10;74558.25;4885536;28;103164;-75
2023/08/14 03:38:40;;;;;;;;;7.00;7.00;;;;;-143.90;82.74;74554.13;4886290;28;102505;-75
2023/08/14 03:41:06;;;;;;;;;11.33;10.33;;;;;-143.90;82.67;74566.53;4880070;28;102038;-75
2023/08/14 03:43:33;;;;;;;;;9.00;9.00;;;;;-143.90;82.08;74554.13;4902893;28;102650;-75
2023/08/14 03:46:00;;;;;;;;;7.00;6.00;;;;;-143.90;81.86;74549.97;4902386;28;104215;-76
2023/08/14 03:48:27;;;;;;;;;6.00;6.00;;;;;-143.90;80.31;74554.13;4885569;28;102350;-77
2023/08/14 03:50:53;;;;;;;;;9.00;9.00;;;;;-143.90;79.68;74539.66;4888834;28;103880;-74
2023/08/14 03:53:20;;;;;;;;;9.00;8.33;;;;;-143.90;79.60;74558.25;4895620;28;102789;-77
2023/08/14 03:55:48;;;;;;;;;10.00;10.00;;;;;-143.90;81.51;74581.00;4885420;28;110558;-76
2023/08/14 03:58:16;;;;;;;;;9.00;9.00;;;;;-143.90;81.55;74595.47;4902324;28;102400;-76
2023/08/14 04:00:43;;;;;;;;;6.00;6.00;;;;;-143.90;82.32;74585.13;4891709;28;102182;-75
2023/08/14 04:03:10;;;;;;;;;8.33;8.00;;;;;-143.90;82.93;74603.72;4891348;28;102792;-75
2023/08/14 04:05:40;;;;;;;;;8.00;7.33;;;;;-143.90;82.76;74593.38;4888322;28;103987;-75
2023/08/14 04:08:08;;;;;;;;;7.33;7.33;;;;;-143.90;82.73;74585.13;4878765;28;102178;-75
2023/08/14 04:10:36;;;;;;;;;9.00;9.00;;;;;-143.90;82.39;74585.13;4879053;28;103958;-75
2023/08/14 04:13:03;;;;;;;;;14.33;13.67;;;;;-143.90;81.83;74585.13;4872268;28;102634;-75
2023/08/14 04:15:30;;;;;;;;;9.00;8.67;;;;;-143.90;82.37;74581.00;4886121;28;108862;-75
2023/08/14 04:17:57;;;;;;;;;9.33;9.33;;;;;-143.90;82.24;74578.91;4903706;28;102355;-75
2023/08/14 04:20:23;;;;;;;;;6.00;6.00;;;;;-143.90;82.16;74581.00;4883046;28;102420;-75
2023/08/14 04:22:50;;;;;;;;;8.00;8.00;;;;;-143.90;82.43;74581.00;4889826;28;102408;-75
2023/08/14 04:25:18;;;;;;;;;10.00;10.00;;;;;-143.90;81.73;74574.78;4888753;28;104804;-75
2023/08/14 04:27:45;;;;;;;;;8.00;8.00;;;;;-143.90;82.14;74581.00;4883969;28;108568;-75
2023/08/14 04:30:13;;;;;;;;;6.00;5.33;;;;;-143.90;81.57;74581.00;4877034;28;102816;-75
2023/08/14 04:32:40;;;;;;;;;9.00;7.33;;;;;-143.90;81.25;74576.84;4895624;28;102896;-75
2023/08/14 04:35:08;;;;;;;;;6.33;5.67;;;;;-143.90;81.99;74587.19;4884517;28;106387;-75
2023/08/14 04:37:35;;;;;;;;;6.67;6.67;;;;;-143.90;82.50;74576.84;4888803;28;102296;-75
2023/08/14 04:40:04;;;;;;;;;10.00;10.00;;;;;-143.90;83.70;74591.31;4890908;28;102435;-75
2023/08/14 04:42:32;;;;;;;;;19.75;17.75;;;;;-143.90;85.01;74599.59;4885612;28;102134;-75
2023/08/14 04:45:00;;;;;;;;;19.25;18.25;;;;;-143.90;84.36;74581.00;4889938;28;106441;-72
2023/08/14 04:47:27;;;;;;;;;16.75;16.75;;;;;-143.90;84.50;74564.44;4881112;28;102438;-75
2023/08/14 04:49:54;;;;;;;;;16.00;14.75;;;;;-143.90;84.01;74564.44;4891971;28;101945;-73
2023/08/14 04:52:22;;;;;;;;;13.00;12.00;;;;;-143.90;83.99;74552.03;4886151;28;102156;-76
2023/08/14 04:54:49;;;;;;;;;13.33;13.33;;;;;-143.90;83.62;74539.66;4888749;28;103634;-74
2023/08/14 04:57:16;;;;;;;;;13.67;12.67;;;;;-143.90;83.63;74525.19;4890613;28;102322;-74
2023/08/14 04:59:43;;;;;;;;;14.00;14.00;;;;;-143.90;83.00;74506.56;4887728;28;102377;-74
2023/08/14 05:02:10;;;;;;;;;12.00;11.00;;;;;-143.90;82.81;74467.31;4889933;28;102310;-74
2023/08/14 05:04:37;;;;;;;;;12.00;11.00;;;;;-143.90;82.36;74444.56;4889146;28;104050;-74
2023/08/14 05:07:04;;;;;;;;;11.00;10.00;;;;;-143.90;79.38;74403.22;4890505;28;102171;-73
2023/08/14 05:09:30;;;;;;;;;13.00;12.00;;;;;-143.90;79.27;74366.00;4877711;28;104865;-73
2023/08/14 05:12:00;;;;;;;;;11.33;11.33;;;;;-143.90;78.29;74335.00;4892455;28;102528;-73
2023/08/14 05:14:27;;;;;;;;;12.00;12.00;;;;;-143.90;76.78;74301.94;4891359;28;104071;-74
2023/08/14 05:16:54;;;;;;;;;9.00;8.67;;;;;-143.90;75.34;74295.75;4890326;28;102495;-73
2023/08/14 05:19:21;;;;;;;;;10.00;8.33;;;;;-143.90;75.56;74270.94;4888669;28;102490;-74
2023/08/14 05:21:47;;;;;;;;;9.00;8.67;;;;;-143.90;74.82;74266.81;4891400;28;102343;-73
2023/08/14 05:24:15;;;;;;;;;8.00;7.67;;;;;-143.90;73.05;74279.22;4887567;28;105928;-73
2023/08/14 05:26:42;;;;;;;;;10.00;8.00;;;;;-143.90;72.07;74266.81;4889923;28;101973;-73
2023/08/14 05:29:09;;;;;;;;;9.67;8.67;;;;;-143.90;71.51;74225.47;4884046;28;102074;-73
2023/08/14 05:31:35;;;;;;;;;9.67;9.33;;;;;-143.90;70.85;74213.06;4890165;28;104441;-73
2023/08/14 05:34:03;;;;;;;;;14.00;14.00;;;;;-143.90;71.50;74180.00;4887663;28;103286;-73
2023/08/14 05:36:29;;;;;;;;;16.00;15.33;;;;;-143.90;72.38;74130.38;4886670;28;102626;-74
2023/08/14 05:38:56;;;;;;;;;16.67;16.67;;;;;-143.90;71.79;74089.06;4890838;28;102675;-72
2023/08/14 05:41:23;;;;;;;;;13.00;12.00;;;;;-143.90;68.09;74068.38;4886310;28;102088;-74
2023/08/14 05:43:50;;;;;;;;;16.00;15.00;;;;;-143.90;68.25;74031.19;4887570;28;104208;-74
2023/08/14 05:46:18;;;;;;;;;18.00;18.00;;;;;-143.90;67.66;73993.97;4886094;28;102383;-74
2023/08/14 05:48:46;;;;;;;;;16.33;16.00;;;;;-143.90;67.70;73956.78;4887732;28;103512;-75
2023/08/14 05:51:12;;;;;;;;;19.33;19.33;;;;;-143.90;67.28;73919.56;4888917;28;102808;-75
2023/08/14 05:53:39;;;;;;;;;16.33;16.00;;;;;-143.90;62.62;73882.38;4884213;28;104079;-72
2023/08/14 05:56:06;;;;;;;;;16.67;15.67;;;;;-143.90;60.20;73880.31;4887375;28;102280;-73
2023/08/14 05:58:33;;;;;;;;;11.33;11.33;;;;;-143.90;59.08;73865.84;4890860;28;102306;-73
2023/08/14 06:01:00;;;;;;;;;15.33;13.67;;;;;-143.90;57.82;73838.97;4889840;28;102369;-73
2023/08/14 06:03:27;;;;;;;;;13.00;12.67;;;;;-143.90;57.67;73838.97;4890822;28;104036;-73
2023/08/14 06:06:10;;;;;;;;;13.67;13.33;;;;;-143.90;58.16;73822.44;4887061;28;102254;-74
2023/08/14 06:08:36;;;;;;;;;17.33;15.33;;;;;-143.90;62.52;73770.78;4888988;28;102184;-72
2023/08/14 06:11:03;;;;;;;;;15.00;15.00;;;;;-143.90;56.52;73750.09;4892443;28;102175;-73
2023/08/14 06:13:31;;;;;;;;;15.00;14.00;;;;;-143.90;57.55;73729.44;4891888;28;103600;-74
2023/08/14 06:15:58;;;;;;;;;13.33;11.67;;;;;-143.90;54.78;73723.22;4883523;28;103122;-75
2023/08/14 06:18:24;;;;;;;;;14.67;14.67;;;;;-143.90;59.31;73675.69;4887836;28;102487;-74
2023/08/14 06:20:51;;;;;;;;;16.33;15.00;;;;;-143.90;56.80;73646.78;4889428;28;102322;-74
2023/08/14 06:23:18;;;;;;;;;11.33;11.33;;;;;-143.90;53.68;73630.25;4888680;28;104076;-74
2023/08/14 06:25:46;;;;;;;;;11.00;11.00;;;;;-143.90;52.97;73613.72;4886981;28;104515;-73
2023/08/14 06:28:12;;;;;;;;;13.00;11.00;;;;;-143.90;50.27;73588.91;4911801;28;102361;-73
2023/08/14 06:30:39;;;;;;;;;13.00;12.67;;;;;-143.90;51.25;73559.97;4894016;28;102039;-73
2023/08/14 06:33:06;;;;;;;;;10.00;10.00;;;;;-143.90;52.75;73586.84;4895460;28;104020;-73
2023/08/14 06:35:33;;;;;;;;;10.33;10.33;;;;;-143.90;47.81;73555.84;4890747;28;102326;-73
2023/08/14 06:38:00;;;;;;;;;12.00;11.00;;;;;-143.90;50.60;73535.19;4890712;28;101908;-73
2023/08/14 06:40:26;;;;;;;;;9.33;9.33;;;;;-143.90;52.06;73541.38;4894213;28;104268;-73
2023/08/14 06:42:54;;;;;;;;;9.67;8.00;;;;;-143.90;50.46;73572.38;4898433;28;103380;-73
2023/08/14 06:45:21;;;;;;;;;8.00;8.00;;;;;-143.90;53.17;73590.97;4893408;28;102248;-73
2023/08/14 06:47:48;;;;;;;;;8.33;8.33;;;;;-143.90;49.67;73640.56;4892301;28;101813;-73
2023/08/14 06:50:15;;;;;;;;;5.00;5.00;;;;;-143.90;52.85;73657.09;4893958;28;101904;-73
2023/08/14 06:52:42;;;;;;;;;6.00;6.00;;;;;-143.90;55.92;73673.63;4890645;28;105301;-73
2023/08/14 06:55:09;;;;;;;;;7.00;6.33;;;;;-143.90;58.90;73683.97;4891705;28;102338;-73
2023/08/14 06:57:36;;;;;;;;;6.00;6.00;;;;;-143.90;56.45;73700.50;4890731;28;102581;-73
2023/08/14 07:00:06;;;;;;;;;7.33;7.33;;;;;-143.90;59.92;73729.44;4896695;28;102170;-73
2023/08/14 07:02:33;;;;;;;;;6.00;5.00;;;;;-143.90;57.43;73737.69;4883911;28;107934;-73
2023/08/14 07:05:00;;;;;;;;;5.33;5.00;;;;;-143.90;54.28;73760.44;4884490;28;102404;-73
2023/08/14 07:07:26;;;;;;;;;4.67;4.67;;;;;-143.90;55.65;73756.31;4884953;28;102922;-73
2023/08/14 07:09:53;;;;;;;;;5.00;5.00;;;;;-143.90;57.49;73756.31;4906534;28;102425;-73
2023/08/14 07:12:20;;;;;;;;;5.00;5.00;;;;;-143.90;54.25;73756.31;4881993;28;104112;-73
2023/08/14 07:14:47;;;;;;;;;5.00;5.00;;;;;-143.90;56.36;73758.38;4904881;28;102986;-73
2023/08/14 07:17:15;;;;;;;;;4.00;4.00;;;;;-143.90;54.45;73770.78;4904383;28;102006;-73
2023/08/14 07:19:42;;;;;;;;;5.00;5.00;;;;;-143.90;55.62;73770.78;4883705;28;101961;-73
2023/08/14 07:22:09;;;;;;;;;4.00;4.00;;;;;-143.90;55.07;73766.63;4885943;28;105281;-73
2023/08/14 07:24:35;;;;;;;;;5.67;5.67;;;;;-143.90;56.83;73762.50;4891272;28;102015;-74
2023/08/14 07:27:02;;;;;;;;;6.00;6.00;;;;;-143.90;58.21;73770.78;4897039;28;103450;-73
2023/08/14 07:29:29;;;;;;;;;4.67;4.00;;;;;-143.90;53.47;73762.50;4908869;28;102498;-72
2023/08/14 07:31:56;;;;;;;;;4.00;4.00;;;;;-143.90;52.57;73752.16;4887728;28;104423;-72
2023/08/14 07:34:22;;;;;;;;;4.00;3.33;;;;;-143.90;52.14;73733.56;4896353;28;102167;-72
2023/08/14 07:36:49;;;;;;;;;3.00;3.00;;;;;-143.90;52.25;73719.09;4893823;28;104937;-72
2023/08/14 07:39:16;;;;;;;;;3.67;3.00;;;;;-143.90;53.58;73696.38;4906959;28;102678;-73
2023/08/14 07:41:46;;;;;;;;;3.33;3.00;;;;;-143.90;51.38;73681.91;4884920;28;105594;-72
2023/08/14 07:44:12;;;;;;;;;2.00;2.00;;;;;-143.90;51.36;73646.78;4893815;28;102309;-72
2023/08/14 07:46:39;;;;;;;;;3.67;3.00;;;;;-143.90;51.72;73619.91;4894633;28;104309;-73
2023/08/14 07:49:06;;;;;;;;;3.00;3.00;;;;;-143.90;52.65;73580.63;4892551;28;102381;-72
2023/08/14 07:51:32;;;;;;;;;4.67;4.00;;;;;-143.90;53.28;73572.38;4894309;28;105869;-72
2023/08/14 07:53:59;;;;;;;;;5.33;4.67;;;;;-143.90;51.66;73559.97;4892498;28;102219;-72
2023/08/14 07:56:26;;;;;;;;;6.00;5.00;;;;;-143.90;50.97;73537.25;4887386;28;103193;-73
2023/08/14 07:58:52;;;;;;;;;5.00;4.33;;;;;-143.90;48.71;73514.50;4891933;28;102352;-73
2023/08/14 08:01:19;;;;;;;;;5.33;5.33;;;;;-143.90;48.67;73526.91;4889701;28;104477;-72
2023/08/14 08:03:46;;;;;;;;;5.00;5.00;;;;;-143.90;48.93;73531.03;4908714;28;102076;-73
2023/08/14 08:06:13;;;;;;;;;6.00;6.00;;;;;-143.90;47.12;73533.09;4903364;28;102693;-73
2023/08/14 08:08:40;;;;;;;;;4.67;4.67;;;;;-143.90;48.61;73516.56;4879286;28;102393;-72
2023/08/14 08:11:11;;;;;;;;;4.00;4.00;;;;;-143.90;47.25;73508.31;4886310;28;104974;-72
2023/08/14 08:13:37;;;;;;;;;5.33;5.33;;;;;-143.90;46.68;73522.78;4886277;28;102036;-72
2023/08/14 08:16:04;;;;;;;;;4.33;4.00;;;;;-143.90;45.94;73533.09;4894873;28;102357;-72
2023/08/14 08:18:31;;;;;;;;;6.00;5.00;;;;;-143.90;45.50;73522.78;4890458;28;102338;-72
2023/08/14 08:20:58;;;;;;;;;5.00;4.67;;;;;-143.90;46.80;73497.97;4904637;28;105692;-72
2023/08/14 08:23:24;;;;;;;;;4.00;3.00;;;;;-143.90;46.52;73489.72;4887947;28;105388;-72
2023/08/14 08:25:51;;;;;;;;;5.00;4.00;;;;;-143.90;45.83;73489.72;4892764;28;101963;-72
2023/08/14 08:28:18;;;;;;;;;4.67;4.00;;;;;-143.90;46.88;73479.38;4890016;28;102576;-72
2023/08/14 08:30:44;;;;;;;;;3.33;3.33;;;;;-143.90;44.58;73497.97;4890613;28;102850;-73
2023/08/14 08:33:11;;;;;;;;;5.25;4.25;;;;;-143.90;44.04;73493.84;4892011;28;102466;-72
2023/08/14 08:35:38;;;;;;;;;5.00;5.00;;;;;-143.90;43.66;73495.91;4880888;28;102151;-73
2023/08/14 08:38:05;;;;;;;;;3.25;3.25;;;;;-143.90;45.35;73489.72;4894110;28;102410;-73
2023/08/14 08:40:33;;;;;;;;;6.00;6.00;;;;;-143.90;45.44;73485.56;4886241;28;103619;-73
2023/08/14 08:43:02;;;;;;;;;5.67;5.67;;;;;-143.90;45.84;73506.25;4887737;28;102207;-73
2023/08/14 08:45:31;;;;;;;;;6.33;6.33;;;;;-143.90;45.29;73506.25;4902967;28;101974;-74
2023/08/14 08:48:05;;;;;;;;;6.00;6.00;;;;;-143.90;46.91;73481.44;4892731;28;102551;-74
2023/08/14 08:50:33;;;;;;;;;5.00;5.00;;;;;-143.90;46.73;73454.59;4889442;28;103729;-74
2023/08/14 08:53:00;;;;;;;;;3.67;3.67;;;;;-143.90;46.08;73440.13;4893745;28;101852;-74
2023/08/14 08:55:27;;;;;;;;;3.25;3.25;;;;;-143.90;45.59;73431.84;4885318;28;105103;-73
2023/08/14 08:57:57;;;;;;;;;5.25;5.25;;;;;-143.90;44.34;73423.59;4890873;28;102380;-73
2023/08/14 09:00:24;;;;;;;;;6.33;5.33;;;;;-143.90;44.35;73431.84;4890968;28;104033;-73
2023/08/14 09:02:51;;;;;;;;;6.00;5.00;;;;;-143.90;45.15;73417.38;4887218;28;102240;-73
2023/08/14 09:05:20;;;;;;;;;6.25;6.25;;;;;-143.90;43.95;73409.13;4887711;28;102465;-73
2023/08/14 09:07:47;;;;;;;;;5.50;4.75;;;;;-143.90;44.93;73396.72;4888292;28;102256;-73
2023/08/14 09:10:15;;;;;;;;;4.00;4.00;;;;;-143.90;45.15;73400.84;4886189;28;103944;-73
2023/08/14 09:12:41;;;;;;;;;4.00;3.50;;;;;-143.90;45.76;73371.91;4888463;28;102304;-73
2023/08/14 09:15:09;;;;;;;;;4.50;4.50;;;;;-143.90;44.39;73365.72;4884880;28;102460;-73
2023/08/14 09:17:36;;;;;;;;;4.00;4.00;;;;;-143.90;42.07;73355.38;4886034;28;103064;-73
2023/08/14 09:20:04;;;;;;;;;4.25;4.25;;;;;-143.90;44.23;73351.25;4885221;28;103851;-73
2023/08/14 09:22:45;;;;;;;;;4.50;3.75;;;;;-143.90;41.93;73336.78;4881926;28;102310;-73
2023/08/14 09:25:14;;;;;;;;;4.25;4.25;;;;;-143.90;41.56;73345.06;4886705;28;102432;-73
2023/08/14 09:27:44;;;;;;;;;2.25;2.25;;;;;-143.90;40.90;73336.78;4905696;28;102228;-73
2023/08/14 09:30:13;;;;;;;;;6.00;5.00;;;;;-143.90;41.91;73338.84;4888418;28;108605;-73
2023/08/14 09:32:40;;;;;;;;;4.00;4.00;;;;;-143.90;42.92;73330.59;4892542;28;102427;-73
2023/08/14 09:35:07;;;;;;;;;5.25;5.25;;;;;-143.90;41.71;73338.84;4890860;28;103258;-73
2023/08/14 09:37:35;;;;;;;;;7.00;6.67;;;;;-143.90;40.61;73353.31;4892426;28;102159;-73
2023/08/14 09:40:10;;;;;;;;;7.67;7.00;;;;;-143.90;42.59;73322.31;4890946;28;104104;-73
2023/08/14 09:42:37;;;;;;;;;5.25;4.00;;;;;-143.90;42.34;73314.06;4890467;28;101969;-73
2023/08/14 09:45:05;;;;;;;;;5.25;5.25;;;;;-143.90;39.51;73299.59;4888592;28;101804;-73
2023/08/14 09:47:32;;;;;;;;;3.00;3.00;;;;;-143.90;41.33;73285.13;4885539;28;102436;-74
2023/08/14 09:49:59;;;;;;;;;4.00;4.00;;;;;-143.90;39.55;73274.81;4901847;28;104122;-73
2023/08/14 09:52:26;;;;;;;;;3.75;3.75;;;;;-143.90;40.20;73256.19;4882157;28;102401;-73
2023/08/14 09:54:55;;;;;;;;;3.00;3.00;;;;;-143.90;39.78;73245.88;4886649;28;102295;-73
2023/08/14 09:57:24;;;;;;;;;3.25;3.25;;;;;-143.90;39.42;73254.13;4887919;28;102288;-73
2023/08/14 09:59:55;;;;;;;;;3.00;3.00;;;;;-143.90;39.30;73254.13;4886595;28;104343;-73
2023/08/14 10:02:23;;;;;;;;;2.00;2.00;;;;;-143.90;39.02;73227.28;4888631;28;102002;-72
2023/08/14 10:04:52;;;;;;;;;1.50;1.50;;;;;-143.90;38.81;73235.53;4888811;28;102443;-73
2023/08/14 10:07:21;;;;;;;;;3.50;3.00;;;;;-143.90;38.86;73216.94;4748199;28;102517;-72
2023/08/14 10:09:55;;;;;;;;;2.00;2.00;;;;;-143.90;39.87;73221.06;4888165;28;104336;-72
2023/08/14 10:12:27;;;;;;;;;2.75;2.75;;;;;-143.90;38.25;73210.75;4890225;28;102541;-72
2023/08/14 10:15:05;;;;;;;;;2.00;2.00;;;;;-143.90;38.53;73204.53;4891098;28;102997;-73
2023/08/14 10:17:41;;;;;;;;;3.00;3.00;;;;;-143.90;38.91;73185.94;4892824;28;102464;-73
2023/08/14 10:20:10;;;;;;;;;2.00;2.00;;;;;-143.90;39.75;73188.00;4878819;28;109809;-72
2023/08/14 10:22:39;;;;;;;;;2.00;2.00;;;;;-143.90;39.13;73163.22;4889573;28;102037;-73
2023/08/14 10:25:07;;;;;;;;;2.00;2.00;;;;;-143.90;38.88;73169.41;4886650;28;102247;-72
2023/08/14 10:27:34;;;;;;;;;4.00;4.00;;;;;-143.90;38.80;73157.00;4887616;28;102232;-72
2023/08/14 10:30:02;;;;;;;;;3.50;3.50;;;;;-143.90;39.02;73175.63;4889157;28;104066;-73
2023/08/14 10:32:29;;;;;;;;;6.00;6.00;;;;;-143.90;38.31;73175.63;4892430;28;102196;-73
2023/08/14 10:35:00;;;;;;;;;3.00;3.00;;;;;-143.90;38.50;73152.88;4890943;28;102688;-73
2023/08/14 10:37:28;;;;;;;;;4.50;4.00;;;;;-143.90;37.93;73146.69;4888962;28;102063;-73
2023/08/14 10:40:15;;;;;;;;;2.00;2.00;;;;;-143.90;38.02;73138.41;4891850;28;104106;-73
2023/08/14 10:42:50;;;;;;;;;4.00;3.25;;;;;-143.90;35.89;73157.00;4885647;28;103771;-73
2023/08/14 10:45:20;;;;;;;;;3.00;3.00;;;;;-143.90;38.72;73136.34;4882938;28;101886;-72
2023/08/14 10:47:47;;;;;;;;;3.75;3.75;;;;;-143.90;37.70;73121.88;4884077;28;102018;-72
2023/08/14 10:50:22;;;;;;;;;7.00;5.75;;;;;-143.90;38.96;73132.22;4892661;28;104026;-72
2023/08/14 10:52:53;;;;;;;;;4.50;4.00;;;;;-143.90;36.41;73123.94;4900087;28;102066;-73
2023/08/14 10:55:35;;;;;;;;;2.75;2.75;;;;;-143.90;37.71;73117.75;4889410;28;102459;-73
2023/08/14 10:58:36;;;;;;;;;2.75;2.75;;;;;-143.90;38.84;73099.16;4889501;28;102439;-73
2023/08/14 11:01:08;;;;;;;;;3.25;3.25;;;;;-143.90;37.47;73084.69;4887021;28;109458;-73
2023/08/14 11:03:55;;;;;;;;;3.75;3.75;;;;;-143.90;36.55;73103.28;4889389;28;102301;-73
2023/08/14 11:06:23;;;;;;;;;4.25;4.00;;;;;-143.90;36.63;73103.28;4891491;28;102377;-72
2023/08/14 11:08:58;;;;;;;;;3.00;3.00;;;;;-143.90;37.74;73097.09;4895466;28;102186;-72
2023/08/14 11:11:26;;;;;;;;;6.50;4.50;;;;;-143.90;37.68;73111.56;4892858;28;103718;-73